オラニエスタッド の空港の天気 - METARとTAF

クィーン・ベアトリクス国際空港 ( TNCA / AUA ) - アルバ オラニエスタッド
飛行場実況気象(Metar)
観測時間07/19 00:00 AST (07/19 04:00 UTC)
風向・風速東 12m/s
視程10km以上
天気現象
全天の4割程度の雲 雲底高度 490m
気温28℃
湿度79%
気圧1013hPa
METARTNCA 190400Z 08023KT 9999 SCT016 28/24 Q1013 NOSIG
過去の天気等 Google飛行場航空写真 Wunderground天気予報

過去48時間のMETAR

飛行場予報(TAF)
発表時間: 7/18 20:00 AST (7/19 00:00 UTC)
予報対象時間: 18日20時 AST ~ 19日20時 AST
風向・風速東 10m/s
視程10km以上
全天の4割程度の雲 雲底高度 610m
19日2時 AST ~ 19日10時 AST に 確率 30% で一時的に
全天の8割程度の雲 雲底高度 430m
TAF TNCA 190000Z 1900/1924 08020KT 9999 SCT020
PROB30 TEMPO 1906/1914 BKN014